Davison Army Air Field Fort Belvoir US
ICAO: KDAA
IATA: DAA
Category: Medium
Scheduled Services: No

Elevation: 73 ft
TransAlt. 18000 ft.

Airport Communications:
POTOMAC APP:119.85
ATIS:128.175
CLNC DEL:24.52
CTAF:126.3
POTOMAC DEP:118.1
GND:121.9
ARNG OPS:52.75
BASE OPS:139.4
PMSV METRO:139.4
PTD:139.4
TWR:126.3

KDAA Zoom In..

Runways:

(A) RW 14 length 5619 ft width 75 ft
---- / hdg 142

(B) RW 32 length 5619 ft width 75 ft
ILS 108.90 / hdg 322

Location; KDAA
Day. 25 / Time. 10.15 Zulu
* Altimeter: 29.79
* Temperature: 13° c. 55.4°f.
* Wind from: 000° Speed 00 kn.
Dewpoint: 13° c.
Visibility: 6 Statute Miles.
Clouds: Overcast 400 ft.
Conditions: Slight Drizzle.Conditions: Mist.

KDAA 251015Z AUTO 00000KT 6SM -DZ BR OVC004 13/13 A2979 RMK AO2 DZB15 SLP091 $


Wind - Calm.

  YouTube Music Video
 
jpsmedia.com for Web Design  worldairports.se 2018   terms of use